Time;durP1;ratioP1;P1;durP2;ratioP2;P2;SDS_P1;SDS_P2;PMS_P1;PMS_P2;Temp;Humidity;BMP_temperature;BMP_pressure;BME280_temperature;BME280_humidity;BME280_pressure;Samples;Min_cycle;Max_cycle;Signal;HPM_P1;HPM_P2
2024/03/12 00:01:03;;;;;;;;;;;;;;;6.58;87.44;100395.22;106321;1292;22564;-59
2024/03/12 00:03:30;;;;;;;70.90;37.70;;;;;;;6.54;87.45;100394.55;106313;1308;24458;-60
2024/03/12 00:05:59;;;;;;;87.10;39.70;;;;;;;6.48;87.99;100395.59;106287;1305;22538;-59
2024/03/12 00:08:25;;;;;;;86.00;39.50;;;;;;;6.44;87.79;100398.00;106201;1310;22593;-59
2024/03/12 00:10:51;;;;;;;78.60;37.70;;;;;;;6.44;87.71;100400.39;106233;1291;25271;-60
2024/03/12 00:13:16;;;;;;;89.40;39.20;;;;;;;6.44;87.66;100395.09;106312;1308;25494;-58
2024/03/12 00:15:41;;;;;;;80.70;37.30;;;;;;;6.45;87.71;100393.04;106260;1308;23342;-60
2024/03/12 00:18:07;;;;;;;70.00;37.10;;;;;;;6.44;87.60;100394.23;106055;1310;22592;-60
2024/03/12 00:20:39;;;;;;;76.80;37.30;;;;;;;6.41;87.68;100393.21;106120;1292;22567;-60
2024/03/12 00:23:06;;;;;;;70.30;36.10;;;;;;;6.39;87.82;100395.27;106332;1303;22514;-59
2024/03/12 00:25:33;;;;;;;79.50;37.80;;;;;;;6.36;88.49;100390.66;106608;1298;22630;-59
2024/03/12 00:27:59;;;;;;;75.60;38.20;;;;;;;6.34;87.96;100393.06;106268;1309;22583;-58
2024/03/12 00:30:25;;;;;;;78.00;39.30;;;;;;;6.31;88.04;100391.70;106122;1299;22702;-59
2024/03/12 00:32:56;;;;;;;75.30;38.30;;;;;;;6.30;88.11;100393.06;106314;1310;22591;-59
2024/03/12 00:35:32;;;;;;;76.30;39.00;;;;;;;6.29;88.44;100391.36;106710;1304;22554;-60
2024/03/12 00:37:58;;;;;;;80.90;37.40;;;;;;;6.29;88.14;100392.73;106330;1305;22712;-60
2024/03/12 00:40:33;;;;;;;71.50;37.90;;;;;;;6.29;88.15;100389.65;105995;1291;22875;-58
2024/03/12 00:43:00;;;;;;;71.90;37.40;;;;;;;6.26;88.16;100390.67;106165;1289;22594;-60
2024/03/12 00:45:29;;;;;;;74.20;36.80;;;;;;;6.24;88.44;100386.25;106103;1308;22567;-59
2024/03/12 00:47:56;;;;;;;73.00;38.30;;;;;;;6.22;88.40;100386.09;106247;1304;22600;-59
2024/03/12 00:50:23;;;;;;;70.90;36.90;;;;;;;6.22;88.29;100391.40;106547;1291;22552;-59
2024/03/12 00:52:53;;;;;;;72.80;37.60;;;;;;;6.23;88.18;100390.02;106272;1310;22625;-60
2024/03/12 00:55:20;;;;;;;75.40;40.10;;;;;;;6.22;88.11;100392.77;106245;1305;22580;-60
2024/03/12 00:57:48;;;;;;;73.30;37.20;;;;;;;6.24;88.01;100393.95;99046;1305;5003486;-60
2024/03/12 01:00:18;;;;;;;70.30;38.30;;;;;;;6.23;88.00;100394.64;106250;1292;22846;-60
2024/03/12 01:02:49;;;;;;;80.60;38.60;;;;;;;6.27;88.03;100400.44;106571;1310;22593;-60
2024/03/12 01:05:20;;;;;;;74.50;39.90;;;;;;;6.28;88.08;100396.49;106271;1308;22509;-60
2024/03/12 01:07:49;;;;;;;74.90;39.20;;;;;;;6.30;88.29;100395.13;106245;1301;22514;-58
2024/03/12 01:10:20;;;;;;;77.80;39.40;;;;;;;6.31;88.17;100398.02;106244;1295;22560;-59
2024/03/12 01:12:53;;;;;;;75.90;39.90;;;;;;;6.32;88.00;100394.59;106301;1310;22547;-60
2024/03/12 01:15:25;;;;;;;78.50;39.60;;;;;;;6.33;88.01;100399.73;106250;1310;22579;-59
2024/03/12 01:17:55;;;;;;;81.40;42.10;;;;;;;6.35;88.12;100394.08;106404;1305;23834;-59
2024/03/12 01:20:24;;;;;;;76.50;38.20;;;;;;;6.35;88.14;100392.20;106073;1295;22569;-60
2024/03/12 01:22:54;;;;;;;85.00;41.40;;;;;;;6.30;89.01;100388.45;106785;1301;22560;-59
2024/03/12 01:25:21;;;;;;;76.30;41.40;;;;;;;6.25;88.68;100385.37;106426;1306;22815;-59
2024/03/12 01:27:47;;;;;;;83.30;42.10;;;;;;;6.23;88.29;100387.45;106370;1310;23856;-59
2024/03/12 01:30:20;;;;;;;78.20;40.60;;;;;;;6.20;88.54;100385.77;106306;1304;22579;-60
2024/03/12 01:32:51;;;;;;;80.70;41.80;;;;;;;6.17;88.28;100388.50;106225;1287;22525;-58
2024/03/12 01:35:20;;;;;;;83.10;42.10;;;;;;;6.19;88.28;100384.90;106566;1304;22571;-59
2024/03/12 01:37:51;;;;;;;84.50;42.00;;;;;;;6.20;88.55;100387.98;106303;1308;22608;-60
2024/03/12 01:40:19;;;;;;;87.30;42.60;;;;;;;6.19;88.36;100389.19;106201;1310;25186;-60
2024/03/12 01:42:54;;;;;;;79.00;42.50;;;;;;;6.17;88.36;100389.02;106557;1291;25319;-59
2024/03/12 01:45:24;;;;;;;83.80;40.80;;;;;;;6.14;88.15;100386.45;106213;1302;22641;-58
2024/03/12 01:47:56;;;;;;;88.30;41.90;;;;;;;6.15;88.35;100389.88;106030;1307;449847;-59
2024/03/12 01:50:24;;;;;;;87.90;42.90;;;;;;;6.16;88.23;100392.09;106174;1304;23848;-59
2024/03/12 01:52:56;;;;;;;79.60;43.20;;;;;;;6.15;88.75;100392.79;105809;1297;22715;-59
2024/03/12 01:55:21;;;;;;;80.40;41.20;;;;;;;6.13;88.86;100395.02;106085;1304;24170;-60
2024/03/12 01:57:48;;;;;;;87.90;44.50;;;;;;;6.11;88.54;100391.77;105979;1304;22775;-59
2024/03/12 02:00:17;;;;;;;82.90;40.70;;;;;;;6.12;88.50;100397.58;106007;1299;22514;-59
2024/03/12 02:02:47;;;;;;;85.70;45.00;;;;;;;6.14;88.50;100398.77;105983;1301;22546;-60
2024/03/12 02:05:13;;;;;;;83.50;42.40;;;;;;;6.16;88.45;100400.83;106137;1310;22756;-59
2024/03/12 02:07:45;;;;;;;84.40;41.50;;;;;;;6.18;88.39;100400.14;106240;1303;22601;-60
2024/03/12 02:10:13;;;;;;;84.30;42.30;;;;;;;6.19;88.41;100403.39;106776;1310;22497;-59
2024/03/12 02:12:39;;;;;;;88.10;44.30;;;;;;;6.18;88.40;100403.90;106014;1292;22748;-60
2024/03/12 02:15:08;;;;;;;88.20;43.50;;;;;;;6.20;88.34;100404.77;105967;1310;22563;-59
2024/03/12 02:17:35;;;;;;;85.30;44.30;;;;;;;6.21;88.46;100405.44;106141;1308;22501;-59
2024/03/12 02:20:00;;;;;;;;;;;;;;;6.23;88.49;100407.14;106065;1312;22539;-59
2024/03/12 02:22:31;;;;;;;83.20;41.30;;;;;;;6.22;88.49;100409.02;105944;1289;22588;-59
2024/03/12 02:24:58;;;;;;;91.40;43.30;;;;;;;6.22;88.47;100408.52;106425;1305;22553;-59
2024/03/12 02:27:25;;;;;;;84.60;44.00;;;;;;;6.21;88.41;100410.73;106191;1305;22530;-60
2024/03/12 02:29:51;;;;;;;;;;;;;;;6.22;88.49;100411.09;106212;1310;22556;-60
2024/03/12 02:32:17;;;;;;;95.30;43.10;;;;;;;6.19;88.35;100410.23;106259;1289;22567;-59
2024/03/12 02:34:44;;;;;;;88.30;43.60;;;;;;;6.17;88.36;100408.35;106110;1298;22632;-60
2024/03/12 02:37:10;;;;;;;88.20;43.40;;;;;;;6.17;88.46;100411.09;106231;1308;22571;-59
2024/03/12 02:39:35;;;;;;;80.60;42.70;;;;;;;6.18;88.62;100409.04;106074;1308;22565;-59
2024/03/12 02:42:01;;;;;;;87.10;42.70;;;;;;;6.18;88.47;100407.49;105974;1305;24449;-60
2024/03/12 02:44:27;;;;;;;88.20;42.70;;;;;;;6.17;88.50;100405.27;106139;1291;22550;-60
2024/03/12 02:46:54;;;;;;;89.30;43.30;;;;;;;6.15;88.27;100404.59;106444;1308;23038;-59
2024/03/12 02:49:23;;;;;;;87.10;42.50;;;;;;;6.15;88.39;100400.32;106119;1305;22637;-60
2024/03/12 02:51:50;;;;;;;88.30;44.80;;;;;;;6.16;88.54;100400.66;106272;1304;24857;-58
2024/03/12 02:54:17;;;;;;;86.90;42.90;;;;;;;6.18;88.50;100401.16;105940;1292;22798;-59
2024/03/12 02:56:42;;;;;;;82.60;42.90;;;;;;;6.19;88.43;100400.83;105642;1312;22566;-59
2024/03/12 02:59:11;;;;;;;89.80;43.60;;;;;;;6.19;88.45;100402.36;105461;1304;22518;-59
2024/03/12 03:01:38;;;;;;;83.20;42.40;;;;;;;6.20;88.63;100399.10;105661;1304;23851;-59
2024/03/12 03:04:05;;;;;;;82.80;43.90;;;;;;;6.19;88.77;100397.58;105424;1293;22824;-59
2024/03/12 03:06:30;;;;;;;83.70;43.00;;;;;;;6.17;88.79;100396.54;105531;1301;22664;-59
2024/03/12 03:08:58;;;;;;;92.40;42.20;;;;;;;6.19;88.70;100397.91;105530;1310;22559;-59
2024/03/12 03:11:25;;;;;;;86.40;43.90;;;;;;;6.21;88.65;100393.80;105427;1289;22688;-59
2024/03/12 03:13:51;;;;;;;84.30;43.80;;;;;;;6.22;88.73;100398.77;105615;1295;24060;-60
2024/03/12 03:16:17;;;;;;;88.40;43.40;;;;;;;6.24;88.86;100398.56;105235;1305;22566;-59
2024/03/12 03:18:43;;;;;;;84.00;43.00;;;;;;;6.21;88.80;100402.88;105645;1311;22557;-59
2024/03/12 03:21:09;;;;;;;83.90;42.70;;;;;;;6.21;88.80;100405.44;105086;1312;22581;-59
2024/03/12 03:23:40;;;;;;;87.50;43.30;;;;;;;6.21;88.82;100411.60;105113;1294;24430;-59
2024/03/12 03:26:06;;;;;;;82.30;41.60;;;;;;;6.21;88.79;100413.65;105547;1305;22576;-59
2024/03/12 03:28:31;;;;;;;80.10;42.30;;;;;;;6.20;88.95;100411.43;105488;1298;22570;-58
2024/03/12 03:30:59;;;;;;;88.30;43.50;;;;;;;6.20;88.83;100414.00;105444;1308;25349;-59
2024/03/12 03:33:27;;;;;;;83.00;42.50;;;;;;;6.20;88.90;100415.36;105403;1289;22564;-61
2024/03/12 03:35:53;;;;;;;84.80;43.40;;;;;;;6.21;88.88;100415.37;105235;1312;22767;-62
2024/03/12 03:38:20;;;;;;;90.70;44.30;;;;;;;6.22;88.77;100418.27;105183;1298;22546;-61
2024/03/12 03:40:46;;;;;;;86.30;44.40;;;;;;;6.23;88.78;100417.40;105250;1311;22613;-61
2024/03/12 03:43:12;;;;;;;87.80;46.60;;;;;;;6.22;88.82;100418.27;105435;1288;22563;-62
2024/03/12 03:45:38;;;;;;;81.60;43.80;;;;;;;6.22;88.82;100417.24;105336;1291;22558;-62
2024/03/12 03:48:04;;;;;;;84.80;44.20;;;;;;;6.23;88.89;100420.84;105327;1307;22781;-62
2024/03/12 03:50:30;;;;;;;88.20;43.30;;;;;;;6.25;88.92;100417.21;105403;1310;22548;-61
2024/03/12 03:52:55;;;;;;;88.90;43.30;;;;;;;6.25;88.82;100420.30;105544;1307;25445;-61
2024/03/12 03:55:22;;;;;;;84.00;43.40;;;;;;;6.24;88.82;100418.08;105249;1289;22766;-62
2024/03/12 03:57:51;;;;;;;82.00;44.00;;;;;;;6.24;88.78;100423.55;105285;1297;22708;-61
2024/03/12 04:00:22;;;;;;;92.90;43.80;;;;;;;6.26;88.83;100423.54;105223;1288;22522;-62
2024/03/12 04:02:49;;;;;;;92.70;44.00;;;;;;;6.28;88.89;100424.56;105572;1311;22579;-62
2024/03/12 04:05:16;;;;;;;83.70;43.60;;;;;;;6.29;88.94;100424.23;105285;1295;23056;-62
2024/03/12 04:07:43;;;;;;;82.20;43.80;;;;;;;6.31;88.92;100424.39;105515;1306;22546;-61
2024/03/12 04:10:10;;;;;;;84.30;43.80;;;;;;;6.33;88.89;100425.59;105501;1305;22594;-61
2024/03/12 04:12:44;;;;;;;92.50;44.50;;;;;;;6.30;88.87;100423.87;105848;1307;22573;-60
2024/03/12 04:15:11;;;;;;;91.20;43.60;;;;;;;6.28;88.81;100424.91;105159;1288;22614;-58
2024/03/12 04:17:37;;;;;;;84.40;43.60;;;;;;;6.29;88.89;100424.05;105119;1298;22776;-64
2024/03/12 04:20:10;;;;;;;84.70;44.00;;;;;;;6.30;88.87;100423.88;105150;1290;22657;-59
2024/03/12 04:22:37;;;;;;;84.00;43.20;;;;;;;6.27;88.77;100421.48;105218;1306;22633;-59
2024/03/12 04:25:07;;;;;;;94.90;44.50;;;;;;;6.25;88.75;100419.95;105424;1291;25339;-60
2024/03/12 04:27:36;;;;;;;86.40;41.30;;;;;;;6.23;88.76;100421.52;105437;1305;25335;-60
2024/03/12 04:30:09;;;;;;;85.90;44.50;;;;;;;6.24;88.88;100419.79;105431;1304;22556;-61
2024/03/12 04:32:35;;;;;;;96.10;46.20;;;;;;;6.25;88.91;100416.87;105571;1295;22703;-60
2024/03/12 04:35:04;;;;;;;87.50;44.60;;;;;;;6.24;88.78;100419.80;105603;1294;22838;-59
2024/03/12 04:37:33;;;;;;;87.40;45.30;;;;;;;6.21;88.92;100424.78;105239;1310;22513;-59
2024/03/12 04:40:00;;;;;;;94.50;45.90;;;;;;;6.17;89.07;100426.49;105394;1306;23883;-60
2024/03/12 04:42:27;;;;;;;99.00;46.00;;;;;;;6.15;88.99;100428.73;105477;1312;22726;-59
2024/03/12 04:44:53;;;;;;;95.00;47.10;;;;;;;6.17;89.12;100425.30;105420;1300;22672;-60
2024/03/12 04:47:20;;;;;;;94.10;45.80;;;;;;;6.17;89.29;100427.52;105969;1310;23858;-60
2024/03/12 04:49:46;;;;;;;100.20;46.00;;;;;;;6.15;89.25;100430.44;105426;1310;22838;-60
2024/03/12 04:52:12;;;;;;;94.90;46.50;;;;;;;6.16;89.13;100435.05;105807;1310;22604;-60
2024/03/12 04:54:38;;;;;;;98.10;46.30;;;;;;;6.19;89.10;100433.86;105460;1298;24297;-61
2024/03/12 04:57:03;;;;;;;98.00;44.40;;;;;;;6.20;89.15;100436.24;105482;1288;22553;-61
2024/03/12 04:59:29;;;;;;;106.40;47.90;;;;;;;6.19;89.08;100440.02;105474;1304;22553;-59
2024/03/12 05:01:54;;;;;;;98.10;46.50;;;;;;;6.20;89.09;100440.36;105477;1304;23468;-61
2024/03/12 05:04:22;;;;;;;103.00;47.50;;;;;;;6.20;89.14;100443.95;105473;1310;22572;-60
2024/03/12 05:06:47;;;;;;;124.50;58.80;;;;;;;6.20;89.25;100448.75;105228;1295;22523;-60
2024/03/12 05:09:17;;;;;;;156.20;80.60;;;;;;;6.19;89.06;100449.25;105353;1298;22563;-60
2024/03/12 05:11:44;;;;;;;111.80;53.00;;;;;;;6.18;89.34;100445.15;105309;1312;22688;-61
2024/03/12 05:14:10;;;;;;;126.50;62.40;;;;;;;6.15;89.37;100444.30;105237;1297;22544;-60
2024/03/12 05:16:35;;;;;;;101.30;52.30;;;;;;;6.15;89.29;100442.23;105088;1295;22576;-61
2024/03/12 05:19:01;;;;;;;101.50;47.70;;;;;;;6.15;89.30;100444.30;105717;1304;22856;-60
2024/03/12 05:21:27;;;;;;;97.70;48.20;;;;;;;6.13;89.23;100442.92;105601;1307;22644;-61
2024/03/12 05:23:54;;;;;;;113.60;48.80;;;;;;;6.12;89.32;100438.82;105722;1304;22786;-60
2024/03/12 05:26:26;;;;;;;105.40;51.10;;;;;;;6.13;89.36;100440.88;105843;1294;22514;-60
2024/03/12 05:28:58;;;;;;;112.60;50.70;;;;;;;6.16;89.40;100438.13;105445;1307;23311;-61
2024/03/12 05:31:32;;;;;;;109.50;48.20;;;;;;;6.18;89.14;100439.16;101791;1304;5071581;-60
2024/03/12 05:34:02;;;;;;;109.60;52.70;;;;;;;6.17;89.17;100445.50;105495;1305;22763;-60
2024/03/12 05:36:30;;;;;;;115.90;50.10;;;;;;;6.16;89.36;100446.52;105677;1294;22683;-60
2024/03/12 05:39:04;;;;;;;112.70;48.80;;;;;;;6.15;89.14;100448.74;105846;1295;22552;-60
2024/03/12 05:41:48;;;;;;;112.90;51.50;;;;;;;6.14;89.48;100455.42;105588;1304;22668;-61
2024/03/12 05:49:42;;;;;;;115.60;48.50;;;;;;;6.17;89.47;100463.64;105790;1312;22913;-60
2024/03/12 05:52:08;;;;;;;112.40;49.20;;;;;;;6.20;89.45;100463.63;105409;1311;25444;-60
2024/03/12 05:54:33;;;;;;;104.20;50.00;;;;;;;6.23;89.44;100465.68;105614;1304;25550;-59
2024/03/12 05:56:59;;;;;;;123.40;52.90;;;;;;;6.21;89.96;100470.65;106084;1288;22552;-60
2024/03/12 05:59:25;;;;;;;116.90;50.70;;;;;;;6.21;89.83;100470.65;106345;1304;22642;-58
2024/03/12 06:01:52;;;;;;;129.30;52.20;;;;;;;6.24;89.65;100472.34;106050;1304;22569;-59
2024/03/12 06:04:18;;;;;;;117.40;50.00;;;;;;;6.27;89.67;100475.58;106021;1308;22537;-60
2024/03/12 06:06:46;;;;;;;118.20;53.00;;;;;;;6.32;89.81;100474.21;106047;1288;22544;-60
2024/03/12 06:09:11;;;;;;;135.80;55.60;;;;;;;6.39;89.82;100477.62;104917;1300;25448;-61
2024/03/12 06:11:37;;;;;;;127.60;54.70;;;;;;;6.46;89.79;100477.45;105474;1304;24277;-62
2024/03/12 06:14:05;;;;;;;124.20;52.30;;;;;;;6.52;89.79;100482.40;104298;1304;26839;-61
2024/03/12 06:16:31;;;;;;;121.10;52.40;;;;;;;6.56;89.56;100484.62;103673;1289;26663;-61
2024/03/12 06:18:57;;;;;;;129.90;54.60;;;;;;;6.55;89.40;100491.65;104225;1310;22753;-61
2024/03/12 06:21:23;;;;;;;137.70;51.80;;;;;;;6.53;89.71;100493.02;105678;1289;22601;-62
2024/03/12 06:23:48;;;;;;;125.40;51.80;;;;;;;6.52;89.64;100499.52;104315;1304;22555;-61
2024/03/12 06:26:13;;;;;;;142.10;57.50;;;;;;;6.55;89.78;100499.52;104602;1308;22937;-59
2024/03/12 06:28:39;;;;;;;129.50;52.90;;;;;;;6.61;89.86;100500.88;104173;1294;25319;-60
2024/03/12 06:31:05;;;;;;;132.00;55.90;;;;;;;6.65;89.94;100500.36;104987;1303;399045;-60
2024/03/12 06:33:31;;;;;;;122.70;52.90;;;;;;;6.71;89.89;100503.78;104901;1311;22573;-59
2024/03/12 06:35:56;;;;;;;127.70;53.40;;;;;;;6.74;89.91;100506.52;104443;1304;22556;-60
2024/03/12 06:38:22;;;;;;;119.00;53.50;;;;;;;6.79;90.01;100501.67;104490;1294;22593;-61
2024/03/12 06:40:50;;;;;;;117.50;52.80;;;;;;;6.86;90.12;100500.29;104443;1307;24279;-60
2024/03/12 06:43:17;;;;;;;115.70;53.10;;;;;;;6.93;89.98;100503.18;103837;1304;22566;-59
2024/03/12 06:45:43;;;;;;;127.00;53.70;;;;;;;6.97;89.83;100505.91;104011;1310;22552;-60
2024/03/12 06:48:08;;;;;;;110.80;51.20;;;;;;;6.98;89.67;100509.00;104391;1288;23951;-59
2024/03/12 06:50:34;;;;;;;85.10;41.30;;;;;;;6.91;89.59;100510.21;104459;1312;22688;-59
2024/03/12 06:53:00;;;;;;;70.10;39.30;;;;;;;6.96;90.06;100512.25;104307;1298;22565;-61
2024/03/12 06:55:26;;;;;;;96.40;45.60;;;;;;;7.06;90.01;100517.19;103843;1309;23807;-61
2024/03/12 06:57:59;;;;;;;94.40;45.70;;;;;;;7.11;89.91;100518.39;104284;1301;22562;-61
2024/03/12 07:00:44;;;;;;;101.10;46.90;;;;;;;7.14;89.97;100520.77;104622;1304;25007;-59
2024/03/12 07:03:10;;;;;;;85.70;43.10;;;;;;;7.23;90.15;100523.14;104423;1297;23047;-59
2024/03/12 07:05:37;;;;;;;97.10;44.80;;;;;;;7.33;90.19;100525.30;104465;1304;22595;-59
2024/03/12 07:08:05;;;;;;;98.00;44.80;;;;;;;7.43;90.21;100525.94;104584;1292;22548;-61
2024/03/12 07:10:32;;;;;;;89.00;43.40;;;;;;;7.44;89.93;100525.08;104124;1304;24366;-61
2024/03/12 07:13:00;;;;;;;81.60;42.00;;;;;;;7.48;89.98;100525.91;104421;1310;25612;-61
2024/03/12 07:15:27;;;;;;;77.20;38.90;;;;;;;7.51;89.82;100528.13;104275;1288;22819;-61
2024/03/12 07:17:53;;;;;;;87.20;43.60;;;;;;;7.54;89.81;100527.27;104237;1288;24202;-61
2024/03/12 07:20:21;;;;;;;90.70;46.70;;;;;;;7.61;90.06;100529.63;104007;1304;22569;-61
2024/03/12 07:22:48;;;;;;;93.30;45.10;;;;;;;7.73;90.16;100529.05;105109;1298;22555;-61
2024/03/12 07:25:15;;;;;;;89.50;40.80;;;;;;;7.81;90.05;100528.12;103793;1310;22612;-61
2024/03/12 07:27:42;;;;;;;78.30;40.00;;;;;;;7.82;89.79;100532.39;103975;1311;22529;-61
2024/03/12 07:30:12;;;;;;;83.90;44.00;;;;;;;7.85;89.78;100538.21;104088;1307;22907;-61
2024/03/12 07:32:39;;;;;;;80.80;40.90;;;;;;;7.90;89.96;100547.80;104147;1307;22559;-61
2024/03/12 07:35:05;;;;;;;79.50;41.10;;;;;;;7.94;89.85;100550.17;104077;1304;22703;-61
2024/03/12 07:37:38;;;;;;;78.50;41.30;;;;;;;7.98;90.05;100547.91;104043;1310;22621;-61
2024/03/12 07:40:04;;;;;;;75.30;38.30;;;;;;;8.09;90.24;100546.64;104051;1292;25381;-61
2024/03/12 07:42:30;;;;;;;69.60;37.60;;;;;;;8.18;90.14;100550.71;104105;1307;22579;-62
2024/03/12 07:44:57;;;;;;;74.70;38.30;;;;;;;8.09;89.14;100550.08;103903;1307;22553;-61
2024/03/12 07:47:24;;;;;;;73.00;38.00;;;;;;;7.99;89.50;100549.98;104613;1304;22673;-61
2024/03/12 07:49:51;;;;;;;75.40;40.90;;;;;;;8.09;89.97;100548.88;104310;1293;22555;-61
2024/03/12 07:52:17;;;;;;;78.40;39.10;;;;;;;8.17;89.99;100551.05;105021;1303;22571;-61
2024/03/12 07:54:43;;;;;;;74.00;39.50;;;;;;;8.23;89.90;100548.60;104315;1310;22670;-61
2024/03/12 07:57:09;;;;;;;77.80;39.20;;;;;;;8.19;89.69;100551.90;104528;1298;22548;-60
2024/03/12 07:59:34;;;;;;;71.60;40.00;;;;;;;8.24;89.92;100553.06;104119;1304;24325;-61
2024/03/12 08:02:03;;;;;;;65.60;37.40;;;;;;;8.27;89.84;100550.13;104044;1307;22555;-61
2024/03/12 08:04:29;;;;;;;69.20;38.60;;;;;;;8.34;89.96;100546.13;104156;1312;25303;-61
2024/03/12 08:06:56;;;;;;;74.70;37.60;;;;;;;8.42;90.02;100545.89;104184;1312;22587;-61
2024/03/12 08:09:23;;;;;;;;;;;;;;;8.40;89.22;100540.91;104439;1291;22548;-61
2024/03/12 08:11:49;;;;;;;65.60;35.70;;;;;;;8.33;89.14;100544.05;104460;1310;22683;-61
2024/03/12 08:14:16;;;;;;;63.50;35.60;;;;;;;8.37;89.72;100542.84;104811;1304;22601;-61
2024/03/12 08:16:42;;;;;;;62.90;34.80;;;;;;;8.49;89.86;100545.99;104904;1301;22559;-61
2024/03/12 08:19:10;;;;;;;68.60;37.60;;;;;;;8.58;89.74;100546.95;104243;1289;26536;-61
2024/03/12 08:21:37;;;;;;;62.80;35.70;;;;;;;8.68;89.72;100546.34;107205;1304;22241;-62
2024/03/12 08:24:02;;;;;;;;;;;;;;;8.78;89.72;100545.91;104089;1304;22830;-62
2024/03/12 08:26:30;;;;;;;65.70;36.70;;;;;;;8.88;89.56;100544.06;103957;1298;22686;-62
2024/03/12 08:28:56;;;;;;;72.00;40.30;;;;;;;8.91;89.49;100545.06;105262;1311;22555;-62
2024/03/12 08:31:23;;;;;;;68.80;39.10;;;;;;;8.96;89.63;100545.70;104063;1305;25446;-62
2024/03/12 08:33:48;;;;;;;75.60;39.90;;;;;;;9.06;89.65;100545.59;104068;1302;22799;-62
2024/03/12 08:36:14;;;;;;;75.80;41.10;;;;;;;9.06;89.18;100552.47;103884;1310;22579;-62
2024/03/12 08:38:40;;;;;;;79.40;41.00;;;;;;;9.06;89.38;100554.20;104127;1307;22520;-62
2024/03/12 08:41:09;;;;;;;79.00;41.10;;;;;;;9.03;89.09;100554.39;104188;1294;22558;-64
2024/03/12 08:43:36;;;;;;;70.80;38.90;;;;;;;9.00;89.21;100559.92;106179;1297;22765;-63
2024/03/12 08:46:03;;;;;;;72.20;39.30;;;;;;;9.02;89.27;100562.14;104581;1304;22573;-63
2024/03/12 08:48:29;;;;;;;67.10;38.50;;;;;;;9.05;89.28;100561.08;104882;1297;22620;-61
2024/03/12 08:50:58;;;;;;;66.90;38.80;;;;;;;9.14;89.58;100562.36;104676;1288;22636;-62
2024/03/12 08:53:23;;;;;;;67.30;39.30;;;;;;;9.28;89.86;100558.76;98159;1305;10002057;-61
2024/03/12 08:55:49;;;;;;;70.20;40.20;;;;;;;9.44;89.93;100557.67;105088;1295;23043;-62
2024/03/12 08:58:14;;;;;;;64.80;38.80;;;;;;;9.55;88.54;100559.77;105662;1296;23097;-62
2024/03/12 09:00:41;;;;;;;71.30;40.00;;;;;;;9.65;89.39;100560.67;105514;1294;22541;-62
2024/03/12 09:03:07;;;;;;;57.00;34.50;;;;;;;9.77;89.31;100562.25;104261;1304;22552;-61
2024/03/12 09:05:34;;;;;;;66.00;36.40;;;;;;;9.87;89.41;100563.47;105457;1310;22596;-63
2024/03/12 09:08:05;;;;;;;59.80;36.00;;;;;;;9.98;89.28;100565.38;105687;1298;22549;-63
2024/03/12 09:10:31;;;;;;;59.00;35.70;;;;;;;10.05;89.04;100568.89;104783;1293;22686;-62
2024/03/12 09:12:57;;;;;;;63.60;38.30;;;;;;;10.11;89.42;100570.86;105417;1296;22569;-62
2024/03/12 09:15:23;;;;;;;;;;;;;;;10.25;89.62;100573.44;106094;1305;22550;-58
2024/03/12 09:17:48;;;;;;;56.70;33.60;;;;;;;10.26;89.10;100573.25;106088;1304;22863;-61
2024/03/12 09:20:15;;;;;;;61.10;36.60;;;;;;;10.33;88.90;100572.30;105056;1288;22600;-62
2024/03/12 09:22:44;;;;;;;65.40;37.50;;;;;;;10.33;88.95;100579.02;104534;1298;22689;-61
2024/03/12 09:25:12;;;;;;;65.40;37.50;;;;;;;10.40;89.41;100575.96;104632;1304;22586;-60
2024/03/12 09:27:38;;;;;;;65.80;37.40;;;;;;;10.47;89.29;100574.10;105020;1288;23809;-60
2024/03/12 09:30:07;;;;;;;66.40;38.30;;;;;;;10.56;89.11;100578.42;104251;1298;288633;-62
2024/03/12 09:32:34;;;;;;;65.70;38.40;;;;;;;10.58;89.00;100575.99;106640;1291;22519;-61
2024/03/12 09:35:02;;;;;;;68.60;39.50;;;;;;;10.57;89.14;100576.35;104263;1295;22620;-62
2024/03/12 09:37:29;;;;;;;71.00;41.00;;;;;;;10.60;88.61;100578.20;104858;1304;22555;-62
2024/03/12 09:39:54;;;;;;;75.10;41.50;;;;;;;10.47;85.27;100581.70;104401;1307;23424;-63
2024/03/12 09:42:24;;;;;;;77.70;40.70;;;;;;;10.30;86.35;100589.58;104248;1307;25771;-61
2024/03/12 09:44:51;;;;;;;73.20;40.50;;;;;;;10.05;85.53;100590.24;104336;1310;22545;-60
2024/03/12 09:47:18;;;;;;;72.60;40.00;;;;;;;9.90;87.38;100591.14;104129;1308;22556;-59
2024/03/12 09:49:44;;;;;;;73.30;40.70;;;;;;;9.73;86.87;100593.11;104343;1298;22511;-60
2024/03/12 09:52:11;;;;;;;76.70;40.80;;;;;;;9.54;86.76;100594.38;104110;1295;23254;-60
2024/03/12 09:54:38;;;;;;;76.60;42.40;;;;;;;9.56;87.98;100595.39;103689;1304;22552;-60
2024/03/12 09:57:05;;;;;;;;;;;;;;;9.59;88.04;100598.45;103729;1304;22526;-60
2024/03/12 09:59:32;;;;;;;69.80;40.10;;;;;;;9.55;87.78;100596.77;103745;1288;23856;-60
2024/03/12 10:02:07;;;;;;;80.80;43.70;;;;;;;9.55;88.18;100596.09;103660;1293;24240;-60
2024/03/12 10:04:33;;;;;;;76.50;40.50;;;;;;;9.59;87.45;100598.10;103477;1304;25265;-60
2024/03/12 10:06:59;;;;;;;79.90;41.70;;;;;;;9.58;86.68;100596.58;103648;1290;22571;-59
2024/03/12 10:09:28;;;;;;;87.30;46.40;;;;;;;9.46;86.41;100592.57;103735;1308;25329;-58
2024/03/12 10:12:01;;;;;;;86.40;45.70;;;;;;;9.50;87.19;100593.91;106384;1294;22568;-59
2024/03/12 10:14:28;;;;;;;77.40;39.90;;;;;;;9.61;87.96;100597.73;103877;1295;23331;-60
2024/03/12 10:17:16;;;;;;;71.70;40.20;;;;;;;9.73;87.89;100601.04;103908;1310;22583;-60
2024/03/12 10:19:51;;;;;;;77.40;43.30;;;;;;;9.83;87.62;100596.77;105757;1300;22575;-60
2024/03/12 10:22:21;;;;;;;75.40;44.50;;;;;;;9.90;87.39;100601.98;104179;1288;22583;-59
2024/03/12 10:24:48;;;;;;;79.50;41.80;;;;;;;10.00;87.83;100605.48;103632;1304;22680;-60
2024/03/12 10:27:14;;;;;;;;;;;;;;;10.12;87.70;100607.70;103907;1297;25382;-59
2024/03/12 10:29:40;;;;;;;82.60;45.10;;;;;;;10.15;86.38;100607.14;107124;1304;22539;-61
2024/03/12 10:32:27;;;;;;;78.60;44.60;;;;;;;10.25;87.31;100609.96;104613;1291;22559;-60
2024/03/12 10:34:53;;;;;;;67.80;40.50;;;;;;;10.36;86.90;100610.84;103817;1301;25198;-60
2024/03/12 10:37:30;;;;;;;75.50;42.70;;;;;;;10.40;86.86;100614.89;103809;1295;22549;-60
2024/03/12 10:40:14;;;;;;;74.30;43.80;;;;;;;10.47;86.71;100613.40;103498;1307;23504;-60
2024/03/12 10:42:51;;;;;;;71.40;42.10;;;;;;;10.46;86.74;100612.05;106308;1294;22670;-60
2024/03/12 10:45:17;;;;;;;;;;;;;;;10.51;85.45;100609.02;105080;1311;22612;-59
2024/03/12 10:47:43;;;;;;;75.40;42.10;;;;;;;10.46;86.23;100610.67;103566;1304;22617;-60
2024/03/12 10:50:10;;;;;;;79.00;44.90;;;;;;;10.59;87.25;100610.79;103633;1305;22578;-60
2024/03/12 10:52:37;;;;;;;70.40;41.00;;;;;;;10.70;87.05;100606.65;107040;1292;22583;-59
2024/03/12 10:55:03;;;;;;;76.40;44.10;;;;;;;10.73;86.58;100609.89;107327;1308;22349;-60
2024/03/12 10:57:33;;;;;;;77.90;42.30;;;;;;;10.69;84.33;100610.13;107355;1304;22255;-60
2024/03/12 11:00:08;;;;;;;74.90;44.90;;;;;;;10.51;83.09;100613.34;104022;1295;22555;-60
2024/03/12 11:02:39;;;;;;;70.80;43.80;;;;;;;10.45;85.84;100616.70;103784;1289;22575;-59
2024/03/12 11:05:05;;;;;;;75.80;42.80;;;;;;;10.56;85.10;100619.12;104142;1304;24777;-60
2024/03/12 11:07:32;;;;;;;72.80;41.60;;;;;;;10.49;84.27;100617.17;104397;1304;22566;-59
2024/03/12 11:09:59;;;;;;;68.10;41.10;;;;;;;10.20;83.00;100619.33;103651;1304;22562;-60
2024/03/12 11:12:25;;;;;;;;;;;;;;;10.00;83.82;100617.88;103737;1289;22582;-63
2024/03/12 11:14:54;;;;;;;69.10;40.40;;;;;;;9.90;84.91;100616.10;103852;1303;22517;-60
2024/03/12 11:17:27;;;;;;;72.20;41.30;;;;;;;10.03;85.18;100615.42;103732;1304;25350;-63